Jask, Jask Airport (OIZJ)

NameJask Airport
CityJask
CountryIran
ICAOOIZJ
IATA
Altitude6 m
CoordinatesGoogle Map
Live Air TrafficLiveATC.net
METAROIZJ 192350Z 10010KT 6000 NSC 29/26 Q1004
2019-08-19 23:50:00 Wind: East (100°) 5.14 m/s - Visibility: 6000 m - Temperature: 29 °C - Dew point: 26 °C - Humidity: 83.9% - Pressure: 1004 hPa

Sorry, no flights used the airport in this database.